Terminal Aerodrome Forecast
Issued by NWS Wakefield, VA

Home | Current Version | Previous Version | Text Only | Print | Product List | Glossary On
Versions: 1 2 3 4 5 6 7 8 9 10 11 12 13 14 15 16 17 18 19 20 21
977
FTUS41 KAKQ 052322
TAFRIC
TAF
KRIC 052322Z 0600/0624 VRB03KT P6SM SCT250
     FM060700 00000KT P6SM OVC100
     FM061100 VRB03KT 5SM -RA BR OVC040
     FM061400 07006KT 2SM RA BR OVC025
     FM061500 07007KT 1SM RA BR OVC007=

USA.gov is the U.S. government's official web portal to all federal, state and local government web resources and services.